createdAt,value
2018-09-19T00:02:02.044Z,6.80
2018-09-19T00:04:31.861Z,6.90
2018-09-19T00:07:02.002Z,6.73
2018-09-19T00:09:31.872Z,6.77
2018-09-19T00:12:01.747Z,6.33
2018-09-19T00:14:31.923Z,7.30
2018-09-19T00:17:01.695Z,6.43
2018-09-19T00:19:31.643Z,7.30
2018-09-19T00:22:01.753Z,6.10
2018-09-19T00:24:31.562Z,7.30
2018-09-19T00:27:01.514Z,7.13
2018-09-19T00:29:31.536Z,7.30
2018-09-19T00:32:01.680Z,7.47
2018-09-19T00:34:31.492Z,7.37
2018-09-19T00:37:01.492Z,7.10
2018-09-19T00:39:31.404Z,6.60
2018-09-19T00:42:01.388Z,6.43
2018-09-19T00:44:31.404Z,7.20
2018-09-19T00:47:01.107Z,7.37
2018-09-19T00:49:31.148Z,6.93
2018-09-19T00:52:01.204Z,6.63
2018-09-19T00:54:31.073Z,7.27
2018-09-19T00:57:00.949Z,7.00
2018-09-19T00:59:30.793Z,6.37
2018-09-19T01:02:00.583Z,6.87
2018-09-19T01:04:30.548Z,6.27
2018-09-19T01:07:00.309Z,6.30
2018-09-19T01:09:29.977Z,7.97
2018-09-19T01:11:59.673Z,7.00
2018-09-19T01:14:29.714Z,6.97
2018-09-19T01:16:59.793Z,7.13
2018-09-19T01:19:29.578Z,7.30
2018-09-19T01:21:59.407Z,6.40
2018-09-19T01:24:29.220Z,6.90
2018-09-19T01:26:59.317Z,7.30
2018-09-19T01:29:29.271Z,7.30
2018-09-19T01:31:59.273Z,6.67
2018-09-19T01:34:29.359Z,6.97
2018-09-19T01:36:59.149Z,7.00
2018-09-19T01:39:29.212Z,7.77
2018-09-19T01:41:59.245Z,7.13
2018-09-19T01:44:28.976Z,7.13
2018-09-19T01:46:58.753Z,7.30
2018-09-19T01:49:28.891Z,6.47
2018-09-19T01:51:58.860Z,7.60
2018-09-19T01:54:28.692Z,8.00
2018-09-19T01:56:58.489Z,7.33
2018-09-19T01:59:28.514Z,7.00
2018-09-19T02:01:58.279Z,6.70
2018-09-19T02:04:28.363Z,8.17
2018-09-19T02:06:58.433Z,7.13
2018-09-19T02:09:28.358Z,7.60
2018-09-19T02:11:58.260Z,7.93
2018-09-19T02:14:28.112Z,7.10
2018-09-19T02:16:58.189Z,7.50
2018-09-19T02:19:28.311Z,6.80
2018-09-19T02:21:58.432Z,6.83
2018-09-19T02:24:28.386Z,7.60
2018-09-19T02:26:58.110Z,7.30
2018-09-19T02:29:28.139Z,7.47
2018-09-19T02:31:58.274Z,7.50
2018-09-19T02:34:28.136Z,6.40
2018-09-19T02:36:57.941Z,6.60
2018-09-19T02:39:27.760Z,6.83
2018-09-19T02:41:57.775Z,8.20
2018-09-19T02:44:27.982Z,7.67
2018-09-19T02:46:57.771Z,7.40
2018-09-19T02:49:27.934Z,7.63
2018-09-19T02:51:59.163Z,6.77
2018-09-19T02:54:30.850Z,7.30
2018-09-19T02:57:00.684Z,7.13
2018-09-19T02:59:30.784Z,7.73
2018-09-19T03:02:00.615Z,7.43
2018-09-19T03:04:30.442Z,7.30
2018-09-19T03:07:00.465Z,7.00
2018-09-19T03:09:30.306Z,6.90
2018-09-19T03:12:00.392Z,7.20
2018-09-19T03:14:30.182Z,6.73
2018-09-19T03:17:00.233Z,6.70
2018-09-19T03:19:30.109Z,6.00
2018-09-19T03:22:00.089Z,6.83
2018-09-19T03:24:29.989Z,6.73
2018-09-19T03:26:59.966Z,7.87
2018-09-19T03:29:29.755Z,7.40
2018-09-19T03:31:59.657Z,7.00
2018-09-19T03:34:29.557Z,6.87
2018-09-19T03:36:59.370Z,7.60
2018-09-19T03:39:29.240Z,7.17
2018-09-19T03:41:59.263Z,7.17
2018-09-19T03:44:29.320Z,6.77
2018-09-19T03:47:00.195Z,6.87
2018-09-19T03:49:30.311Z,7.80
2018-09-19T03:52:00.250Z,7.30
2018-09-19T03:54:30.101Z,8.10
2018-09-19T03:57:00.101Z,7.77
2018-09-19T03:59:30.523Z,7.23
2018-09-19T04:02:00.331Z,8.67
2018-09-19T04:04:30.807Z,8.97
2018-09-19T04:07:00.946Z,6.90
2018-09-19T04:09:30.952Z,6.30
2018-09-19T04:12:01.043Z,7.60
2018-09-19T04:14:30.980Z,7.40
2018-09-19T04:17:00.859Z,7.70
2018-09-19T04:19:30.804Z,7.23
2018-09-19T04:22:00.679Z,7.47
2018-09-19T04:24:30.601Z,6.67
2018-09-19T04:27:00.709Z,7.90
2018-09-19T04:29:30.831Z,6.50
2018-09-19T04:32:00.619Z,6.43
2018-09-19T04:34:30.463Z,6.93
2018-09-19T04:37:00.297Z,6.67
2018-09-19T04:39:31.017Z,7.70
2018-09-19T04:42:01.052Z,8.07
2018-09-19T04:44:31.001Z,6.60
2018-09-19T04:47:00.810Z,6.83
2018-09-19T04:49:30.720Z,7.17
2018-09-19T04:52:00.547Z,8.47
2018-09-19T04:54:30.568Z,7.10
2018-09-19T04:57:00.504Z,7.57
2018-09-19T04:59:30.306Z,7.60
2018-09-19T05:02:00.425Z,6.77
2018-09-19T05:04:30.472Z,7.50
2018-09-19T05:07:00.345Z,6.30
2018-09-19T05:09:30.243Z,8.13
2018-09-19T05:12:00.146Z,6.97
2018-09-19T05:14:30.533Z,7.57
2018-09-19T05:17:00.385Z,7.20
2018-09-19T05:19:30.477Z,8.87
2018-09-19T05:22:00.490Z,7.97
2018-09-19T05:24:30.426Z,8.00
2018-09-19T05:27:00.616Z,8.70
2018-09-19T05:29:30.384Z,7.50
2018-09-19T05:32:00.192Z,6.43
2018-09-19T05:34:29.958Z,7.90
2018-09-19T05:36:59.836Z,7.90
2018-09-19T05:39:29.805Z,7.83
2018-09-19T05:41:59.669Z,8.17
2018-09-19T05:44:29.552Z,8.17
2018-09-19T05:46:59.383Z,7.30
2018-09-19T05:49:29.387Z,8.87
2018-09-19T05:51:59.247Z,8.33
2018-09-19T05:54:29.377Z,7.57
2018-09-19T05:56:59.274Z,7.10
2018-09-19T05:59:29.261Z,7.80
2018-09-19T06:01:59.132Z,7.63
2018-09-19T06:04:29.122Z,7.40
2018-09-19T06:06:59.527Z,8.23
2018-09-19T06:09:29.415Z,7.50
2018-09-19T06:11:59.249Z,8.57
2018-09-19T06:14:29.542Z,8.13
2018-09-19T06:16:59.609Z,8.07
2018-09-19T06:19:30.091Z,7.57
2018-09-19T06:22:00.045Z,8.40
2018-09-19T06:24:30.441Z,7.47
2018-09-19T06:27:00.587Z,8.43
2018-09-19T06:29:30.567Z,7.60
2018-09-19T06:32:00.377Z,8.30
2018-09-19T06:34:30.616Z,7.80
2018-09-19T06:37:00.525Z,7.70
2018-09-19T06:39:30.871Z,8.17
2018-09-19T06:42:00.671Z,8.60
2018-09-19T06:44:30.637Z,8.57
2018-09-19T06:47:00.816Z,7.20
2018-09-19T06:49:30.649Z,7.27
2018-09-19T06:52:02.531Z,8.17
2018-09-19T06:54:32.312Z,7.43
2018-09-19T06:57:02.362Z,6.97
2018-09-19T06:59:32.450Z,7.77
2018-09-19T07:02:02.430Z,7.10
2018-09-19T07:04:32.275Z,7.57
2018-09-19T07:07:02.177Z,6.90
2018-09-19T07:09:32.169Z,6.97
2018-09-19T07:12:02.088Z,7.70
2018-09-19T07:14:32.190Z,6.13
2018-09-19T07:17:02.140Z,7.13
2018-09-19T07:19:32.013Z,6.63
2018-09-19T07:22:02.076Z,6.97
2018-09-19T07:24:31.987Z,7.57
2018-09-19T07:27:01.713Z,7.20
2018-09-19T07:29:31.719Z,7.33
2018-09-19T07:32:01.680Z,7.00
2018-09-19T07:34:31.636Z,7.90
2018-09-19T07:37:01.385Z,7.20
2018-09-19T07:39:32.743Z,6.90
2018-09-19T07:42:02.654Z,8.13
2018-09-19T07:44:32.641Z,7.00
2018-09-19T07:47:02.583Z,6.70
2018-09-19T07:49:32.425Z,6.80
2018-09-19T07:52:02.371Z,7.57
2018-09-19T07:54:32.308Z,5.87
2018-09-19T07:57:02.167Z,6.30
2018-09-19T07:59:31.963Z,6.13
2018-09-19T08:02:01.922Z,6.63
2018-09-19T08:04:31.971Z,7.23
2018-09-19T08:07:01.718Z,6.70
2018-09-19T08:09:31.498Z,6.73
2018-09-19T08:12:01.300Z,6.40
2018-09-19T08:14:31.361Z,6.30
2018-09-19T08:17:01.213Z,6.50
2018-09-19T08:19:31.239Z,7.43
2018-09-19T08:22:01.016Z,6.17
2018-09-19T08:24:30.857Z,6.77
2018-09-19T08:27:00.755Z,6.40
2018-09-19T08:29:30.580Z,6.70
2018-09-19T08:32:00.330Z,6.50
2018-09-19T08:34:30.072Z,6.50
2018-09-19T08:37:00.250Z,6.37
2018-09-19T08:39:33.515Z,5.87
2018-09-19T08:42:14.798Z,6.30
2018-09-19T08:44:44.715Z,5.97
2018-09-19T08:47:14.572Z,5.83
2018-09-19T08:49:44.465Z,6.70
2018-09-19T08:52:14.525Z,6.27
2018-09-19T08:54:44.495Z,6.10
2018-09-19T08:57:14.656Z,5.70
2018-09-19T08:59:44.489Z,5.90
2018-09-19T09:02:14.287Z,5.30
2018-09-19T09:04:44.534Z,5.27
2018-09-19T09:07:14.337Z,5.70
2018-09-19T09:09:44.118Z,4.70
2018-09-19T09:12:14.209Z,4.83
2018-09-19T09:14:44.116Z,6.20
2018-09-19T09:17:14.467Z,5.40
2018-09-19T09:19:44.423Z,4.70
2018-09-19T09:22:14.348Z,5.63
2018-09-19T09:24:44.368Z,5.00
2018-09-19T09:27:14.227Z,4.67
2018-09-19T09:29:44.328Z,4.83
2018-09-19T09:34:44.256Z,4.90
2018-09-19T09:37:14.020Z,4.47
2018-09-19T09:39:44.579Z,5.00
2018-09-19T09:42:14.706Z,5.63
2018-09-19T09:44:44.676Z,5.03
2018-09-19T09:47:14.773Z,4.57
2018-09-19T09:49:44.551Z,4.77
2018-09-19T09:52:14.479Z,4.93
2018-09-19T09:54:44.432Z,4.70
2018-09-19T09:57:14.287Z,5.47
2018-09-19T09:59:44.223Z,5.07
2018-09-19T10:02:14.189Z,4.93
2018-09-19T10:04:44.220Z,4.10
2018-09-19T10:07:14.206Z,4.70
2018-09-19T10:09:44.063Z,5.30
2018-09-19T10:12:13.843Z,4.97
2018-09-19T10:14:43.523Z,5.23
2018-09-19T10:17:13.484Z,4.70
2018-09-19T10:19:43.340Z,5.00
2018-09-19T10:22:13.312Z,5.10
2018-09-19T10:24:43.075Z,4.50
2018-09-19T10:27:12.939Z,4.60
2018-09-19T10:29:42.985Z,4.90
2018-09-19T10:32:13.031Z,4.80
2018-09-19T10:34:42.765Z,4.10
2018-09-19T10:37:12.947Z,4.87
2018-09-19T10:39:42.802Z,5.33
2018-09-19T10:42:14.177Z,4.67
2018-09-19T10:44:44.042Z,4.63
2018-09-19T10:47:14.073Z,5.00
2018-09-19T10:49:43.991Z,5.23
2018-09-19T10:52:14.107Z,4.57
2018-09-19T10:54:44.316Z,5.07
2018-09-19T10:57:14.189Z,5.20
2018-09-19T10:59:44.068Z,5.23
2018-09-19T11:02:14.055Z,5.83
2018-09-19T11:04:44.062Z,5.53
2018-09-19T11:07:13.976Z,5.30
2018-09-19T11:09:44.691Z,5.60
2018-09-19T11:12:14.476Z,5.30
2018-09-19T11:14:47.274Z,6.10
2018-09-19T11:17:17.319Z,5.37
2018-09-19T11:19:47.143Z,5.90
2018-09-19T11:22:17.014Z,4.90
2018-09-19T11:24:47.459Z,5.40
2018-09-19T11:27:17.366Z,5.87
2018-09-19T11:29:47.547Z,4.90
2018-09-19T11:32:17.527Z,6.50
2018-09-19T11:34:47.343Z,5.37
2018-09-19T11:37:17.223Z,5.43
2018-09-19T11:39:47.049Z,4.97
2018-09-19T11:42:17.019Z,5.73
2018-09-19T11:44:47.149Z,5.23
2018-09-19T11:47:17.127Z,5.77
2018-09-19T11:49:47.221Z,4.73
2018-09-19T11:52:17.064Z,4.90
2018-09-19T11:54:47.171Z,5.30
2018-09-19T11:57:17.153Z,4.70
2018-09-19T11:59:47.206Z,5.33
2018-09-19T12:02:17.134Z,4.30
2018-09-19T12:04:47.772Z,4.20
2018-09-19T12:07:17.754Z,4.70
2018-09-19T12:09:47.716Z,4.80
2018-09-19T12:12:17.651Z,4.90
2018-09-19T12:14:47.618Z,5.00
2018-09-19T12:17:17.400Z,4.70
2018-09-19T12:19:47.314Z,4.70
2018-09-19T12:22:17.234Z,4.53
2018-09-19T12:24:52.596Z,4.77
2018-09-19T12:27:22.321Z,4.37
2018-09-19T12:29:52.213Z,4.50
2018-09-19T12:32:21.925Z,4.20
2018-09-19T12:34:51.961Z,4.67
2018-09-19T12:37:21.978Z,4.17
2018-09-19T12:39:51.749Z,4.47
2018-09-19T12:42:21.562Z,3.97
2018-09-19T12:44:51.723Z,4.30
2018-09-19T12:47:21.563Z,3.70
2018-09-19T12:49:51.737Z,4.83
2018-09-19T12:52:21.557Z,4.40
2018-09-19T12:54:51.534Z,3.90
2018-09-19T12:57:21.350Z,5.00
2018-09-19T12:59:51.149Z,3.87
2018-09-19T13:02:21.799Z,4.47
2018-09-19T13:04:52.795Z,4.60
2018-09-19T13:07:22.690Z,4.80
2018-09-19T13:09:52.586Z,4.57
2018-09-19T13:12:23.720Z,5.17
2018-09-19T13:14:53.612Z,4.20
2018-09-19T13:17:23.536Z,5.00
2018-09-19T13:19:53.607Z,4.30
2018-09-19T13:22:23.723Z,5.17
2018-09-19T13:24:53.719Z,4.70
2018-09-19T13:27:24.266Z,4.40
2018-09-19T13:29:54.451Z,4.77
2018-09-19T13:32:24.601Z,4.50
2018-09-19T13:34:54.549Z,4.70
2018-09-19T13:37:24.445Z,4.70
2018-09-19T13:39:56.891Z,4.17
2018-09-19T13:42:28.340Z,4.47
2018-09-19T13:44:59.012Z,4.67
2018-09-19T13:47:29.081Z,4.60
2018-09-19T13:50:41.865Z,4.80
2018-09-19T13:53:11.995Z,4.93
2018-09-19T13:55:47.143Z,4.50
2018-09-19T13:58:18.312Z,4.67
2018-09-19T14:00:48.789Z,4.77
2018-09-19T14:03:18.922Z,4.50
2018-09-19T14:05:49.836Z,4.50
2018-09-19T14:11:30.785Z,4.63
2018-09-19T14:14:00.969Z,4.60
2018-09-19T14:16:33.969Z,5.60
2018-09-19T14:19:04.828Z,5.07
2018-09-19T14:21:36.651Z,4.20
2018-09-19T14:24:06.609Z,4.90
2018-09-19T14:26:36.781Z,4.90
2018-09-19T14:29:06.931Z,5.13
2018-09-19T14:31:36.917Z,4.20
2018-09-19T14:34:06.898Z,5.23
2018-09-19T14:36:37.148Z,4.50
2018-09-19T14:39:09.060Z,4.70
2018-09-19T14:41:39.196Z,5.37
2018-09-19T14:44:09.195Z,4.57
2018-09-19T14:46:39.358Z,4.53
2018-09-19T14:49:09.425Z,5.13
2018-09-19T14:51:39.394Z,4.53
2018-09-19T14:54:09.550Z,4.80
2018-09-19T14:56:39.579Z,4.70
2018-09-19T14:59:09.463Z,4.53
2018-09-19T15:01:39.404Z,5.50
2018-09-19T15:04:09.372Z,4.80
2018-09-19T15:06:39.265Z,4.80
2018-09-19T15:09:11.173Z,5.10
2018-09-19T15:11:41.265Z,5.00
2018-09-19T15:14:11.190Z,4.30
2018-09-19T15:16:41.515Z,3.97
2018-09-19T15:19:11.391Z,4.80
2018-09-19T15:21:41.539Z,4.73
2018-09-19T15:24:11.620Z,4.90
2018-09-19T15:26:41.663Z,5.10
2018-09-19T15:29:11.565Z,4.47
2018-09-19T15:31:41.475Z,5.13
2018-09-19T15:34:11.789Z,4.77
2018-09-19T15:36:45.942Z,4.80
2018-09-19T15:39:15.958Z,5.17
2018-09-19T15:41:46.102Z,5.00
2018-09-19T15:44:16.090Z,5.70
2018-09-19T15:46:45.954Z,5.80
2018-09-19T15:49:16.201Z,5.00
2018-09-19T15:51:46.632Z,5.33
2018-09-19T15:54:17.071Z,5.00
2018-09-19T15:56:47.285Z,6.13
2018-09-19T15:59:17.704Z,5.90
2018-09-19T16:01:48.308Z,5.13
2018-09-19T16:04:18.366Z,5.00
2018-09-19T16:06:48.345Z,5.33
2018-09-19T16:09:18.294Z,5.63
2018-09-19T16:11:48.872Z,5.60
2018-09-19T16:14:18.883Z,5.50
2018-09-19T16:16:48.920Z,5.80
2018-09-19T16:19:18.983Z,5.53
2018-09-19T16:21:49.273Z,5.17
2018-09-19T16:24:19.305Z,5.10
2018-09-19T16:26:49.284Z,6.60
2018-09-19T16:29:19.689Z,5.50
2018-09-19T16:31:49.683Z,5.40
2018-09-19T16:34:19.631Z,5.23
2018-09-19T16:36:49.619Z,5.20
2018-09-19T16:39:19.611Z,5.40
2018-09-19T16:41:49.722Z,4.50
2018-09-19T16:47:20.736Z,4.50
2018-09-19T16:49:50.658Z,4.43
2018-09-19T16:52:20.584Z,4.43
2018-09-19T16:54:50.815Z,5.03
2018-09-19T16:57:21.032Z,4.30
2018-09-19T16:59:51.393Z,3.80
2018-09-19T17:02:27.664Z,4.50
2018-09-19T17:04:58.411Z,4.80
2018-09-19T17:07:28.594Z,4.70
2018-09-19T17:09:58.515Z,4.47
2018-09-19T17:12:28.388Z,4.47
2018-09-19T17:14:58.312Z,4.07
2018-09-19T17:17:28.244Z,4.70
2018-09-19T17:19:58.237Z,4.60
2018-09-19T17:22:28.176Z,4.43
2018-09-19T17:24:58.192Z,4.40
2018-09-19T17:27:28.384Z,4.63
2018-09-19T17:29:58.575Z,4.77
2018-09-19T17:32:28.713Z,4.80
2018-09-19T17:34:58.985Z,4.60
2018-09-19T17:37:29.872Z,4.50
2018-09-19T17:40:00.390Z,4.30
2018-09-19T17:42:30.624Z,5.07
2018-09-19T17:45:00.672Z,4.80
2018-09-19T17:47:30.754Z,4.77
2018-09-19T17:50:00.807Z,4.60
2018-09-19T17:52:30.831Z,4.33
2018-09-19T17:55:00.823Z,4.77
2018-09-19T17:57:30.839Z,4.40
2018-09-19T18:00:00.985Z,4.30
2018-09-19T18:02:31.044Z,4.23
2018-09-19T18:05:00.995Z,4.50
2018-09-19T18:07:31.300Z,4.17
2018-09-19T18:10:01.188Z,4.10
2018-09-19T18:12:31.173Z,4.47
2018-09-19T18:15:01.155Z,4.07
2018-09-19T18:17:31.260Z,4.70
2018-09-19T18:20:01.235Z,4.43
2018-09-19T18:22:31.331Z,4.50
2018-09-19T18:25:01.335Z,4.77
2018-09-19T18:27:31.379Z,5.30
2018-09-19T18:30:02.451Z,4.87
2018-09-19T18:32:32.597Z,4.77
2018-09-19T18:35:02.605Z,5.00
2018-09-19T18:37:32.596Z,4.83
2018-09-19T18:40:03.254Z,4.80
2018-09-19T18:42:33.238Z,4.53
2018-09-19T18:45:03.216Z,5.20
2018-09-19T18:47:33.204Z,4.67
2018-09-19T18:50:03.219Z,5.30
2018-09-19T18:52:33.325Z,4.53
2018-09-19T18:55:17.513Z,5.13
2018-09-19T18:57:47.692Z,4.93
2018-09-19T19:00:17.815Z,4.20
2018-09-19T19:02:48.816Z,5.23
2018-09-19T19:05:18.937Z,5.10
2018-09-19T19:07:49.503Z,4.40
2018-09-19T19:10:19.807Z,5.40
2018-09-19T19:12:49.859Z,4.90
2018-09-19T19:15:20.308Z,5.33
2018-09-19T19:17:51.576Z,5.40
2018-09-19T19:20:29.594Z,4.93
2018-09-19T19:23:12.268Z,4.50
2018-09-19T19:28:59.152Z,5.23
2018-09-19T19:31:29.316Z,5.90
2018-09-19T19:34:01.638Z,5.13
2018-09-19T19:40:12.453Z,5.23
2018-09-19T19:42:42.633Z,4.60
2018-09-19T19:45:15.344Z,4.60
2018-09-19T19:51:20.716Z,5.47
2018-09-19T19:53:51.054Z,6.00
2018-09-19T19:56:21.191Z,5.87
2018-09-19T19:58:51.399Z,5.13
2018-09-19T20:04:34.006Z,4.80
2018-09-19T20:07:04.632Z,5.80
2018-09-19T20:12:25.423Z,5.10
2018-09-19T20:14:55.871Z,5.33
2018-09-19T20:17:46.328Z,6.10
2018-09-19T20:23:20.315Z,4.93
2018-09-19T20:25:50.212Z,5.30
2018-09-19T20:28:20.409Z,5.17
2018-09-19T20:30:50.442Z,5.87
2018-09-19T20:33:20.475Z,6.00
2018-09-19T20:35:51.245Z,5.50
2018-09-19T20:38:21.296Z,5.33
2018-09-19T20:40:51.417Z,4.80
2018-09-19T20:43:22.723Z,5.23
2018-09-19T20:45:58.984Z,6.07
2018-09-19T20:48:40.445Z,5.37
2018-09-19T20:51:13.718Z,5.67
2018-09-19T20:53:44.904Z,6.20
2018-09-19T21:02:36.989Z,6.10
2018-09-19T21:05:08.163Z,5.53
2018-09-19T21:07:38.631Z,5.90
2018-09-19T21:13:02.033Z,6.37
2018-09-19T21:15:32.509Z,6.40
2018-09-19T21:18:07.916Z,6.60
2018-09-19T21:20:38.027Z,6.60
2018-09-19T21:23:09.241Z,6.00
2018-09-19T21:25:45.910Z,5.83
2018-09-19T21:28:17.446Z,5.77
2018-09-19T21:31:00.689Z,6.07
2018-09-19T21:33:30.801Z,5.60
2018-09-19T21:36:02.489Z,6.43
2018-09-19T21:41:44.083Z,6.50
2018-09-19T21:44:23.553Z,6.10
2018-09-19T21:46:56.113Z,6.50
2018-09-19T21:49:26.335Z,6.80
2018-09-19T21:51:56.481Z,6.30
2018-09-19T21:54:26.713Z,5.27
2018-09-19T21:56:56.899Z,6.10
2018-09-19T21:59:26.873Z,6.77
2018-09-19T22:01:59.540Z,6.73
2018-09-19T22:04:29.724Z,7.27
2018-09-19T22:06:59.779Z,6.70
2018-09-19T22:09:29.781Z,6.60
2018-09-19T22:11:59.884Z,5.30
2018-09-19T22:14:29.899Z,6.70
2018-09-19T22:17:00.012Z,6.27
2018-09-19T22:19:30.251Z,6.57
2018-09-19T22:22:00.191Z,6.47
2018-09-19T22:24:30.179Z,6.70
2018-09-19T22:27:00.319Z,6.20
2018-09-19T22:29:30.487Z,6.63
2018-09-19T22:32:00.661Z,6.00
2018-09-19T22:34:30.743Z,6.17
2018-09-19T22:37:00.714Z,7.07
2018-09-19T22:39:31.717Z,6.40
2018-09-19T22:42:01.868Z,5.43
2018-09-19T22:44:31.916Z,6.27
2018-09-19T22:47:00.848Z,5.90
2018-09-19T22:49:30.949Z,6.67
2018-09-19T22:52:00.968Z,6.40
2018-09-19T22:54:31.266Z,6.30
2018-09-19T22:57:01.385Z,6.10
2018-09-19T22:59:31.453Z,6.20
2018-09-19T23:02:01.610Z,7.10
2018-09-19T23:04:31.524Z,6.13
2018-09-19T23:07:01.504Z,6.63
2018-09-19T23:09:31.468Z,6.40
2018-09-19T23:12:01.579Z,6.23
2018-09-19T23:14:31.688Z,6.90
2018-09-19T23:17:01.812Z,7.27
2018-09-19T23:19:31.851Z,7.00
2018-09-19T23:22:02.123Z,7.23
2018-09-19T23:24:32.398Z,6.53
2018-09-19T23:27:02.378Z,6.77
2018-09-19T23:29:32.538Z,6.40
2018-09-19T23:32:02.384Z,6.70
2018-09-19T23:34:32.513Z,6.37
2018-09-19T23:37:02.935Z,6.70
2018-09-19T23:39:33.110Z,7.40
2018-09-19T23:42:03.093Z,6.97
2018-09-19T23:44:33.082Z,6.47
2018-09-19T23:47:03.063Z,6.90
2018-09-19T23:49:33.186Z,5.80
2018-09-19T23:52:03.748Z,6.00
2018-09-19T23:54:33.724Z,7.10
2018-09-19T23:57:03.855Z,6.33
2018-09-19T23:59:33.941Z,6.47
